LIN weather

Milano Linate Airport
Milan, Lombardy, Italy

Public forecast

Using degrees Celsius for public forecast. Weather courtesy of forecast.io.

METAR (pilot weather report)

Retrieved 2019/03/19 18:20 UTC (13 minutes ago):

LIML 191820Z 15003KT 120V180 CAVOK 11/M01 Q1024 NOSIG

TAF (pilot weather forecast)

Retrieved 2019/03/19 18:21 UTC (12 minutes ago):

TAF LIML 191700Z 1918/2018 VRB05KT CAVOK